Pensacola Naval Air Station/Forrest Sherman field
KNPA : rendu visible

Aérodrome :











RETROUVEZ-NOUS SUR...

 
LOGIN :

S'inscrire | Disclaimer

   EN    FR    IT 

 









Légende :    VFR   VFR Marginal   IFR   IFR Intensif   IFR Très Intensif
Visi : 
Plafond : 
>= 8 km
>= 3000ft
5 à 8 km
1000 à 3000 ft
1500m à 5 km
500 à 1000 ft
800 à 1500m
200 à 500 ft
< 800m
< 200 ft
Symboles :   Orages  Brouillard  Fortes neiges  Fortes précipitations  Vent > 20 kt






- Altitude de l'aérodrome : 28 ft


KNPA - Pensacola Naval Air Station/Forrest Sherman field

DERNIER METAR :
  • 202356Z 00000KT 10SM SCT250 11/09 A3017 RMK AO2 SLP218 T01110094 10211 20111 53007 $

METARs EXPIRÉS :
  • 202256Z 00000KT 10SM FEW010 SCT250 13/09 A3016 RMK AO2 SLP214 FU FEW010 FU DSNT N T01330094 $
  • 202156Z 19005KT 10SM FEW010 SCT250 19/07 A3016 RMK AO2 SLP213 FU FEW010 FU DSNT N T01890067 $

TAF TAF KNPA
Valide du 20 à 23h jusqu'au 21 à 23h UTC


2023/2123 VRB05KT 9999 SCT250 QNH3014INS
TEMPO 2109/2112 3200 BR
FM211300 10008KT 9999 FEW150 SCT250 QNH3019INS
FM211800 14010KT 9999 FEW025 SCT150 BKN250 QNH3009INS AUTOMATED SENSOR METWATCH 2103 TIL 2112 T10/2112Z T22/2120Z FN20034



MET'MAP, la Météo Aéronautique d'un coup d'oeil ! - Copyright ORBIFLY Décembre 2007 - Disclaimer

ORBIFLY MET'MAP TEAM :

Programmation & Développement : Alexandra Zaïnal
Conception & Développement : Baudouin d'Aumeries
Co-Programmation & Développement : Marc-Olivier Méhu
Soutien technique & logistique : Manuel Goepfert

Contact : metmap@orbifly.com




SOURCES & CREDITS :

   NOAA       Earth
Advisory